createdAt,value
2023-04-08T00:00:31.978Z,15.93
2023-04-08T00:08:37.434Z,14.20
2023-04-08T00:16:45.805Z,13.55
2023-04-08T00:24:51.388Z,14.23
2023-04-08T00:32:59.517Z,13.02
2023-04-08T00:41:05.077Z,12.23
2023-04-08T00:49:13.222Z,13.85
2023-04-08T00:57:18.770Z,13.93
2023-04-08T01:05:32.056Z,13.18
2023-04-08T01:13:42.805Z,13.77
2023-04-08T01:21:51.559Z,13.32
2023-04-08T01:30:01.843Z,13.35
2023-04-08T01:38:11.982Z,13.40
2023-04-08T01:46:20.667Z,14.30
2023-04-08T01:54:26.183Z,13.52
2023-04-08T02:02:36.522Z,14.43
2023-04-08T02:10:42.289Z,14.48
2023-04-08T02:18:57.976Z,14.68
2023-04-08T02:27:05.506Z,14.38
2023-04-08T02:35:15.906Z,14.23
2023-04-08T02:43:21.554Z,13.98
2023-04-08T02:51:29.727Z,14.70
2023-04-08T02:59:39.274Z,13.40
2023-04-08T03:07:47.347Z,13.30
2023-04-08T03:15:52.800Z,14.82
2023-04-08T03:24:01.071Z,14.75
2023-04-08T03:32:06.630Z,16.35
2023-04-08T03:40:16.165Z,17.80
2023-04-08T03:48:21.648Z,18.58
2023-04-08T03:56:29.831Z,19.13
2023-04-08T04:04:37.206Z,15.43
2023-04-08T04:12:45.269Z,18.42
2023-04-08T04:20:50.749Z,19.55
2023-04-08T04:28:58.836Z,18.38
2023-04-08T04:37:04.347Z,17.08
2023-04-08T04:45:13.645Z,16.65
2023-04-08T04:53:19.139Z,15.23
2023-04-08T05:01:27.323Z,16.33
2023-04-08T05:09:33.182Z,16.30
2023-04-08T05:17:41.569Z,15.68
2023-04-08T05:25:47.087Z,16.85
2023-04-08T05:33:55.201Z,16.15
2023-04-08T05:42:00.684Z,16.63
2023-04-08T05:50:10.085Z,14.60
2023-04-08T05:58:16.213Z,16.05
2023-04-08T06:06:25.658Z,13.85
2023-04-08T06:14:31.155Z,15.93
2023-04-08T06:22:39.281Z,15.98
2023-04-08T06:30:44.740Z,15.60
2023-04-08T06:38:52.826Z,16.30
2023-04-08T06:46:58.351Z,19.98
2023-04-08T06:55:06.531Z,19.58
2023-04-08T07:03:12.397Z,21.08
2023-04-08T07:11:21.367Z,19.45
2023-04-08T07:19:27.301Z,19.83
2023-04-08T07:27:36.847Z,18.88
2023-04-08T07:35:42.708Z,18.67
2023-04-08T07:43:50.901Z,19.08
2023-04-08T07:51:56.340Z,19.70
2023-04-08T08:00:05.104Z,13.52
2023-04-08T08:08:18.648Z,12.52
2023-04-08T08:16:27.761Z,12.85
2023-04-08T08:24:33.211Z,14.25
2023-04-08T08:32:41.360Z,12.52
2023-04-08T08:40:47.032Z,12.55
2023-04-08T08:48:55.172Z,13.27
2023-04-08T08:57:00.762Z,11.77
2023-04-08T09:05:09.566Z,11.90
2023-04-08T09:13:15.215Z,12.23
2023-04-08T09:21:27.651Z,10.90
2023-04-08T09:29:36.443Z,11.00
2023-04-08T09:37:46.775Z,12.35
2023-04-08T09:45:53.495Z,11.90
2023-04-08T09:54:06.640Z,12.35
2023-04-08T10:02:14.763Z,11.43
2023-04-08T10:10:23.251Z,11.35
2023-04-08T10:18:36.901Z,11.30
2023-04-08T10:34:58.258Z,10.85
2023-04-08T10:43:06.686Z,11.52
2023-04-08T10:51:12.369Z,11.95
2023-04-08T10:59:32.275Z,12.25
2023-04-08T11:07:44.539Z,12.00
2023-04-08T11:15:53.678Z,10.70
2023-04-08T11:23:59.419Z,11.38
2023-04-08T11:32:09.249Z,11.95
2023-04-08T11:40:16.398Z,11.18
2023-04-08T11:48:24.459Z,11.85
2023-04-08T11:56:30.821Z,11.15
2023-04-08T12:04:39.574Z,10.98
2023-04-08T12:12:45.303Z,11.85
2023-04-08T12:20:53.466Z,12.32
2023-04-08T12:28:58.993Z,11.70
2023-04-08T12:37:07.072Z,11.73
2023-04-08T12:45:12.844Z,12.15
2023-04-08T12:53:20.972Z,13.00
2023-04-08T13:01:26.563Z,12.23
2023-04-08T13:09:35.183Z,11.45
2023-04-08T13:17:40.762Z,15.57
2023-04-08T13:25:48.957Z,16.77
2023-04-08T13:33:57.642Z,17.38
2023-04-08T13:42:06.176Z,17.83
2023-04-08T13:50:13.420Z,15.48
2023-04-08T13:58:24.240Z,17.40
2023-04-08T14:06:30.194Z,17.35
2023-04-08T14:14:38.215Z,18.10
2023-04-08T14:22:43.705Z,17.83
2023-04-08T14:30:53.107Z,18.45
2023-04-08T14:38:58.956Z,20.75
2023-04-08T14:47:07.061Z,18.90
2023-04-08T14:55:13.165Z,18.95
2023-04-08T15:03:23.044Z,17.48
2023-04-08T15:11:34.631Z,18.15
2023-04-08T15:19:42.799Z,18.88
2023-04-08T15:27:49.028Z,17.13
2023-04-08T15:35:57.666Z,19.20
2023-04-08T15:44:04.144Z,17.85
2023-04-08T15:52:12.561Z,17.52
2023-04-08T16:00:18.849Z,16.20
2023-04-08T16:08:27.337Z,17.67
2023-04-08T16:16:33.477Z,19.23
2023-04-08T16:24:53.729Z,18.50
2023-04-08T16:32:59.227Z,18.40
2023-04-08T16:41:10.317Z,18.05
2023-04-08T16:49:18.147Z,20.58
2023-04-08T16:57:26.639Z,18.70
2023-04-08T17:05:32.209Z,16.90
2023-04-08T17:13:40.832Z,16.35
2023-04-08T17:21:46.534Z,16.33
2023-04-08T17:29:57.874Z,19.65
2023-04-08T17:38:03.523Z,19.25
2023-04-08T17:46:12.218Z,21.23
2023-04-08T17:54:17.980Z,25.52
2023-04-08T18:02:27.803Z,25.75
2023-04-08T18:10:33.461Z,25.65
2023-04-08T18:18:42.903Z,24.80
2023-04-08T18:26:54.263Z,26.42
2023-04-08T18:35:06.242Z,24.85
2023-04-08T18:43:12.279Z,24.40
2023-04-08T18:51:20.394Z,23.48
2023-04-08T18:59:28.039Z,24.30
2023-04-08T19:07:36.075Z,24.55
2023-04-08T19:15:41.607Z,25.77
2023-04-08T19:23:50.074Z,23.02
2023-04-08T19:31:57.230Z,23.75
2023-04-08T19:40:05.258Z,23.55
2023-04-08T19:48:10.692Z,25.42
2023-04-08T19:56:18.725Z,26.65
2023-04-08T20:04:24.288Z,22.10
2023-04-08T20:12:33.244Z,23.73
2023-04-08T20:20:38.737Z,22.88
2023-04-08T20:28:48.343Z,21.52
2023-04-08T20:36:54.040Z,22.55
2023-04-08T20:45:02.100Z,20.98
2023-04-08T20:53:07.604Z,21.73
2023-04-08T21:01:16.085Z,22.80
2023-04-08T21:09:21.616Z,23.17
2023-04-08T21:17:31.448Z,23.10
2023-04-08T21:25:36.955Z,24.48
2023-04-08T21:33:45.070Z,24.92
2023-04-08T21:41:50.527Z,22.25
2023-04-08T21:49:58.875Z,21.20
2023-04-08T21:58:04.329Z,22.13
2023-04-08T22:06:19.328Z,19.95
2023-04-08T22:14:35.134Z,20.75
2023-04-08T22:22:43.115Z,21.20
2023-04-08T22:30:48.692Z,19.48
2023-04-08T22:38:57.042Z,21.20
2023-04-08T22:47:02.549Z,20.45
2023-04-08T22:55:11.590Z,20.42
2023-04-08T23:03:17.082Z,20.70
2023-04-08T23:11:25.175Z,20.50
2023-04-08T23:19:30.672Z,21.38
2023-04-08T23:27:38.951Z,20.60
2023-04-08T23:35:45.102Z,20.83
2023-04-08T23:43:53.276Z,22.30
2023-04-08T23:51:58.880Z,24.60
